Time;durP1;ratioP1;P1;durP2;ratioP2;P2;SDS_P1;SDS_P2;PMS_P1;PMS_P2;Temp;Humidity;BMP_temperature;BMP_pressure;BME280_temperature;BME280_humidity;BME280_pressure;Samples;Min_cycle;Max_cycle;Signal;HPM_P1;HPM_P2
2023/07/14 00:01:24;;;;;;;5.50;1.83;;;19.60;64.20;;;;;;5102807;28;20470;-79
2023/07/14 00:03:52;;;;;;;4.83;1.70;;;19.60;64.30;;;;;;5104738;28;21020;-80
2023/07/14 00:06:21;;;;;;;6.77;2.10;;;19.50;64.50;;;;;;5107174;28;20907;-80
2023/07/14 00:08:50;;;;;;;11.30;2.40;;;19.50;64.50;;;;;;5106551;28;20486;-80
2023/07/14 00:11:22;;;;;;;6.07;2.10;;;19.40;64.50;;;;;;5103373;28;20467;-79
2023/07/14 00:13:51;;;;;;;5.63;2.50;;;19.40;64.50;;;;;;5106168;28;20469;-79
2023/07/14 00:16:25;;;;;;;4.97;2.00;;;19.30;64.60;;;;;;5108997;28;20527;-80
2023/07/14 00:18:53;;;;;;;4.83;2.00;;;19.30;64.70;;;;;;5102304;28;20547;-80
2023/07/14 00:21:23;;;;;;;8.63;2.80;;;19.30;64.70;;;;;;5109837;27;20517;-80
2023/07/14 00:23:56;;;;;;;5.57;2.17;;;19.30;64.80;;;;;;5103313;28;20488;-80
2023/07/14 00:26:25;;;;;;;6.87;2.57;;;19.30;64.80;;;;;;5104699;28;20459;-80
2023/07/14 00:28:54;;;;;;;5.27;2.10;;;19.30;64.90;;;;;;5106787;28;20536;-80
2023/07/14 00:31:25;;;;;;;5.90;2.20;;;19.30;64.80;;;;;;5103089;28;20499;-81
2023/07/14 00:33:55;;;;;;;5.03;1.70;;;19.20;64.90;;;;;;5108223;28;20467;-81
2023/07/14 00:36:24;;;;;;;5.07;2.00;;;19.10;64.90;;;;;;5102623;28;20455;-81
2023/07/14 00:38:52;;;;;;;6.10;2.13;;;19.10;65.00;;;;;;5107543;28;20483;-81
2023/07/14 00:41:23;;;;;;;8.10;2.47;;;19.00;65.10;;;;;;5111157;28;20532;-80
2023/07/14 00:43:52;;;;;;;6.47;2.07;;;19.00;65.10;;;;;;5106834;28;20465;-80
2023/07/14 00:46:27;;;;;;;6.13;2.47;;;18.90;65.20;;;;;;5105352;28;20468;-79
2023/07/14 00:49:00;;;;;;;8.40;2.47;;;18.90;65.30;;;;;;5106291;28;20996;-79
2023/07/14 00:51:32;;;;;;;6.87;2.87;;;18.90;65.30;;;;;;5104007;28;20463;-80
2023/07/14 00:54:01;;;;;;;14.80;2.10;;;18.90;65.30;;;;;;5105501;28;20999;-81
2023/07/14 00:56:36;;;;;;;6.70;2.10;;;18.90;65.30;;;;;;5100529;28;20452;-81
2023/07/14 00:59:14;;;;;;;5.30;2.00;;;18.90;65.40;;;;;;5103070;28;20883;-81
2023/07/14 01:02:15;;;;;;;5.40;2.10;;;18.90;65.40;;;;;;5102611;28;20480;-81
2023/07/14 01:04:50;;;;;;;7.50;2.13;;;19.00;65.40;;;;;;5101790;28;20865;-81
2023/07/14 01:07:23;;;;;;;5.10;1.73;;;19.00;65.40;;;;;;5104493;28;20491;-81
2023/07/14 01:09:54;;;;;;;5.17;1.97;;;18.90;65.30;;;;;;5108590;28;20892;-81
2023/07/14 01:12:24;;;;;;;6.10;1.90;;;18.90;65.30;;;;;;5105889;28;20511;-79
2023/07/14 01:14:54;;;;;;;4.37;1.60;;;18.80;65.30;;;;;;5097954;28;20451;-80
2023/07/14 01:17:22;;;;;;;6.77;2.33;;;18.70;65.50;;;;;;5103803;27;21064;-81
2023/07/14 01:19:55;;;;;;;5.43;2.27;;;18.70;65.60;;;;;;5106901;27;20966;-80
2023/07/14 01:22:31;;;;;;;7.83;2.30;;;18.70;65.70;;;;;;5118277;27;20462;-80
2023/07/14 01:25:09;;;;;;;4.60;1.80;;;18.60;65.70;;;;;;5102358;28;20491;-81
2023/07/14 01:27:38;;;;;;;5.20;2.00;;;18.60;65.70;;;;;;5103005;28;20450;-81
2023/07/14 01:30:08;;;;;;;5.90;2.20;;;18.50;65.70;;;;;;5105479;28;20904;-81
2023/07/14 01:32:38;;;;;;;5.40;2.10;;;18.50;65.70;;;;;;5099666;28;20619;-80
2023/07/14 01:35:08;;;;;;;9.60;1.83;;;18.40;65.70;;;;;;5102878;28;20478;-79
2023/07/14 01:37:39;;;;;;;6.40;2.20;;;18.40;65.90;;;;;;5105589;28;20821;-80
2023/07/14 01:40:12;;;;;;;5.00;1.90;;;18.40;65.90;;;;;;5103043;28;20593;-80
2023/07/14 01:42:46;;;;;;;5.23;2.27;;;18.40;66.00;;;;;;5100776;28;20468;-80
2023/07/14 01:45:17;;;;;;;8.00;2.33;;;18.30;66.10;;;;;;5106337;27;20996;-80
2023/07/14 01:47:50;;;;;;;6.80;2.33;;;18.30;66.10;;;;;;5103054;28;20459;-79
2023/07/14 01:50:22;;;;;;;6.97;2.40;;;18.30;66.20;;;;;;5103538;28;20990;-79
2023/07/14 01:52:54;;;;;;;6.00;2.03;;;18.40;66.20;;;;;;5101528;28;20938;-80
2023/07/14 01:55:31;;;;;;;8.23;2.20;;;18.40;66.10;;;;;;5104552;27;20542;-80
2023/07/14 01:58:05;;;;;;;6.20;2.37;;;18.30;66.10;;;;;;5099514;28;20493;-80
2023/07/14 02:00:35;;;;;;;6.30;1.80;;;18.30;66.10;;;;;;5109486;28;20475;-80
2023/07/14 02:03:07;;;;;;;4.30;2.00;;;18.30;66.10;;;;;;5103906;28;20503;-79
2023/07/14 02:05:37;;;;;;;8.27;2.23;;;18.30;66.00;;;;;;5104928;28;20483;-80
2023/07/14 02:08:13;;;;;;;5.83;2.30;;;18.20;66.10;;;;;;5104274;28;20464;-79
2023/07/14 02:10:41;;;;;;;4.27;2.10;;;18.20;66.20;;;;;;5095572;28;21210;-82
2023/07/14 02:13:13;;;;;;;5.57;2.00;;;18.20;66.20;;;;;;5101621;28;20500;-79
2023/07/14 02:15:41;;;;;;;5.30;2.20;;;18.20;66.20;;;;;;5099828;28;20551;-80
2023/07/14 02:18:15;;;;;;;4.47;1.80;;;18.10;66.20;;;;;;5103929;28;20941;-80
2023/07/14 02:20:47;;;;;;;6.77;1.90;;;18.10;66.20;;;;;;5101752;28;20462;-81
2023/07/14 02:23:19;;;;;;;6.07;2.13;;;18.00;66.20;;;;;;5103598;28;21028;-81
2023/07/14 02:25:52;;;;;;;5.10;1.93;;;17.90;66.40;;;;;;5103758;28;20456;-80
2023/07/14 02:28:21;;;;;;;5.17;2.07;;;17.80;66.30;;;;;;5101339;28;20450;-81
2023/07/14 02:30:53;;;;;;;7.10;2.03;;;17.80;66.50;;;;;;5104672;28;20485;-81
2023/07/14 02:33:27;;;;;;;5.13;1.87;;;17.70;66.60;;;;;;5104108;28;20469;-81
2023/07/14 02:36:02;;;;;;;7.47;2.27;;;17.70;66.70;;;;;;5103230;28;20456;-80
2023/07/14 02:38:31;;;;;;;5.17;2.00;;;17.80;66.80;;;;;;5107051;28;20465;-80
2023/07/14 02:41:06;;;;;;;6.63;1.80;;;17.80;66.80;;;;;;5101338;28;20460;-82
2023/07/14 02:43:37;;;;;;;7.50;2.30;;;17.80;66.70;;;;;;5102816;28;20450;-81
2023/07/14 02:50:11;;;;;;;5.00;2.00;;;17.80;66.50;;;;;;5102231;28;20456;-80
2023/07/14 02:52:39;;;;;;;4.90;2.10;;;17.60;66.60;;;;;;5104848;28;20463;-81
2023/07/14 02:55:07;;;;;;;5.60;1.83;;;17.60;66.70;;;;;;5098931;28;20455;-81
2023/07/14 02:57:35;;;;;;;6.10;2.30;;;17.60;66.80;;;;;;5102001;28;20558;-81
2023/07/14 03:00:07;;;;;;;8.40;2.73;;;17.60;66.90;;;;;;5106278;28;20437;-81
2023/07/14 03:02:35;;;;;;;6.23;2.33;;;17.60;66.90;;;;;;5102788;28;20460;-81
2023/07/14 03:05:04;;;;;;;7.03;1.90;;;17.60;66.80;;;;;;5105483;28;20452;-81
2023/07/14 03:07:34;;;;;;;5.90;1.90;;;17.60;66.70;;;;;;5103456;28;20467;-81
2023/07/14 03:10:05;;;;;;;5.53;2.17;;;17.50;66.70;;;;;;5107836;28;20469;-81
2023/07/14 03:12:33;;;;;;;5.27;2.47;;;17.50;66.80;;;;;;5115204;27;21320;-81
2023/07/14 03:15:01;;;;;;;10.77;2.90;;;17.50;66.80;;;;;;5103579;28;20449;-81
2023/07/14 03:17:30;;;;;;;5.77;2.50;;;17.50;66.90;;;;;;5105523;28;20526;-81
2023/07/14 03:19:59;;;;;;;5.43;1.93;;;17.50;66.90;;;;;;5112335;27;20455;-80
2023/07/14 03:22:30;;;;;;;5.03;2.10;;;17.50;66.80;;;;;;5109247;28;20898;-81
2023/07/14 03:25:00;;;;;;;10.83;2.27;;;17.50;66.80;;;;;;5107324;27;20454;-81
2023/07/14 03:27:28;;;;;;;5.47;1.83;;;17.50;66.80;;;;;;5107746;28;20496;-81
2023/07/14 03:29:56;;;;;;;8.90;2.23;;;17.40;66.70;;;;;;5108988;28;20460;-80
2023/07/14 03:32:24;;;;;;;7.30;2.50;;;17.40;66.70;;;;;;5104730;28;20499;-83
2023/07/14 03:34:54;;;;;;;6.67;2.47;;;17.30;66.90;;;;;;5109838;28;20466;-84
2023/07/14 03:37:22;;;;;;;6.40;2.10;;;17.30;67.00;;;;;;5101766;28;20460;-82
2023/07/14 03:39:50;;;;;;;9.10;2.20;;;17.30;67.10;;;;;;5101957;28;20458;-82
2023/07/14 03:42:18;;;;;;;6.77;2.43;;;17.40;67.00;;;;;;5108042;28;20459;-82
2023/07/14 03:44:46;;;;;;;9.93;2.67;;;17.40;67.00;;;;;;5107788;28;20933;-82
2023/07/14 03:47:14;;;;;;;5.67;2.60;;;17.30;67.00;;;;;;5102225;28;20549;-81
2023/07/14 03:49:42;;;;;;;7.17;2.27;;;17.20;67.10;;;;;;5108708;28;20958;-81
2023/07/14 03:52:13;;;;;;;8.80;3.00;;;17.20;67.20;;;;;;5106471;28;20452;-79
2023/07/14 03:54:41;;;;;;;9.13;2.50;;;17.20;67.30;;;;;;5101894;28;20502;-80
2023/07/14 03:57:09;;;;;;;6.30;2.30;;;17.30;67.50;;;;;;5108336;28;21072;-81
2023/07/14 03:59:37;;;;;;;6.60;2.27;;;17.30;67.50;;;;;;5111285;28;20473;-81
2023/07/14 04:02:05;;;;;;;13.10;2.30;;;17.40;67.50;;;;;;5102043;28;20997;-82
2023/07/14 04:04:33;;;;;;;5.20;2.50;;;17.40;67.30;;;;;;5105311;28;20809;-82
2023/07/14 04:07:01;;;;;;;7.80;2.30;;;17.40;67.30;;;;;;5107131;28;20887;-81
2023/07/14 04:09:31;;;;;;;5.80;2.13;;;17.40;67.30;;;;;;5104193;28;20487;-82
2023/07/14 04:11:59;;;;;;;7.40;2.60;;;17.40;67.40;;;;;;5102393;28;20475;-82
2023/07/14 04:14:27;;;;;;;8.43;2.50;;;17.50;67.50;;;;;;5102338;28;20466;-82
2023/07/14 04:16:55;;;;;;;8.00;2.00;;;17.60;67.60;;;;;;5100728;28;20494;-80
2023/07/14 04:19:23;;;;;;;5.13;2.07;;;17.60;67.70;;;;;;5101872;28;20471;-83
2023/07/14 04:21:51;;;;;;;5.00;2.40;;;17.70;67.70;;;;;;5104308;28;20451;-83
2023/07/14 04:24:19;;;;;;;14.00;3.03;;;17.80;67.70;;;;;;5106859;28;20957;-81
2023/07/14 04:26:50;;;;;;;8.23;2.37;;;17.90;67.80;;;;;;5110920;27;20496;-81
2023/07/14 04:29:18;;;;;;;7.80;2.37;;;18.00;67.80;;;;;;5106772;28;20548;-81
2023/07/14 04:31:46;;;;;;;9.23;4.13;;;18.00;67.90;;;;;;5102910;28;20486;-82
2023/07/14 04:34:16;;;;;;;7.77;2.30;;;18.00;68.00;;;;;;5102442;28;20476;-81
2023/07/14 04:36:47;;;;;;;9.93;2.67;;;18.00;68.00;;;;;;5107392;28;20465;-81
2023/07/14 04:39:17;;;;;;;6.30;2.30;;;18.00;68.20;;;;;;5121233;27;20450;-80
2023/07/14 04:41:45;;;;;;;12.97;2.93;;;18.00;68.30;;;;;;5108718;28;20485;-79
2023/07/14 04:44:15;;;;;;;7.13;2.70;;;18.00;68.40;;;;;;5101884;28;20467;-80
2023/07/14 04:46:45;;;;;;;12.90;3.57;;;18.00;68.50;;;;;;5106463;28;20938;-80
2023/07/14 04:49:14;;;;;;;9.13;2.80;;;18.00;68.50;;;;;;5103248;28;20457;-79
2023/07/14 04:51:44;;;;;;;7.80;2.40;;;18.00;68.50;;;;;;5104874;28;20481;-78
2023/07/14 04:54:12;;;;;;;9.13;2.97;;;18.00;68.70;;;;;;5101645;28;20968;-78
2023/07/14 04:56:42;;;;;;;7.87;2.67;;;18.00;68.90;;;;;;5100960;28;20464;-79
2023/07/14 04:59:11;;;;;;;6.57;2.70;;;18.10;68.90;;;;;;5105975;28;20450;-79
2023/07/14 05:01:40;;;;;;;7.53;2.83;;;18.20;69.00;;;;;;5102408;28;20536;-77
2023/07/14 05:04:08;;;;;;;10.27;2.60;;;18.30;69.10;;;;;;5100728;28;20465;-78
2023/07/14 05:06:36;;;;;;;6.00;2.43;;;18.30;69.10;;;;;;5102574;28;20471;-79
2023/07/14 05:09:04;;;;;;;7.97;2.40;;;18.40;69.10;;;;;;5104588;28;20535;-78
2023/07/14 05:11:32;;;;;;;9.50;3.27;;;18.40;69.10;;;;;;5102244;28;20517;-78
2023/07/14 05:14:00;;;;;;;7.87;3.10;;;18.50;69.10;;;;;;5103215;28;20606;-79
2023/07/14 05:16:28;;;;;;;12.37;3.63;;;18.50;69.10;;;;;;5107460;28;20523;-79
2023/07/14 05:18:58;;;;;;;6.40;3.00;;;18.60;69.20;;;;;;5109950;28;20457;-79
2023/07/14 05:21:26;;;;;;;6.17;2.73;;;18.70;69.30;;;;;;5099334;28;20482;-79
2023/07/14 05:23:54;;;;;;;8.47;3.07;;;18.80;69.20;;;;;;5102877;28;20867;-79
2023/07/14 05:26:22;;;;;;;8.73;2.67;;;18.90;69.30;;;;;;5100007;28;20465;-80
2023/07/14 05:28:49;;;;;;;11.60;3.53;;;19.00;69.40;;;;;;5097727;28;20814;-80
2023/07/14 05:31:19;;;;;;;8.80;3.23;;;19.10;69.40;;;;;;5103705;28;21044;-79
2023/07/14 05:33:47;;;;;;;7.00;2.70;;;19.20;69.30;;;;;;5103108;28;20474;-79
2023/07/14 05:36:17;;;;;;;7.03;2.83;;;19.40;69.20;;;;;;5099141;28;21057;-80
2023/07/14 05:38:45;;;;;;;8.17;3.10;;;19.50;69.20;;;;;;5097496;28;22241;-79
2023/07/14 05:41:12;;;;;;;8.27;3.33;;;19.60;69.00;;;;;;5098415;28;20554;-79
2023/07/14 05:43:41;;;;;;;8.43;3.30;;;19.70;68.90;;;;;;5095952;28;21032;-78
2023/07/14 05:46:09;;;;;;;8.77;3.50;;;19.80;68.80;;;;;;5094327;28;20452;-79
2023/07/14 05:48:37;;;;;;;8.40;3.33;;;19.90;68.70;;;;;;5099885;28;21292;-79
2023/07/14 05:51:06;;;;;;;9.40;3.60;;;20.00;68.70;;;;;;5099414;28;20566;-78
2023/07/14 05:53:36;;;;;;;7.57;3.27;;;20.00;68.50;;;;;;5106480;28;20498;-79
2023/07/14 05:56:05;;;;;;;6.17;2.97;;;20.10;68.50;;;;;;5101480;28;20456;-81
2023/07/14 05:58:33;;;;;;;8.10;3.10;;;20.20;68.70;;;;;;5102570;28;20444;-81
2023/07/14 06:01:02;;;;;;;11.50;3.20;;;20.40;68.60;;;;;;5102211;28;20469;-80
2023/07/14 06:03:30;;;;;;;8.00;3.57;;;20.80;68.50;;;;;;5092672;28;20514;-78
2023/07/14 06:05:58;;;;;;;6.80;3.30;;;21.00;67.90;;;;;;5102352;28;20451;-80
2023/07/14 06:08:25;;;;;;;6.40;2.83;;;21.30;67.70;;;;;;5104048;28;20460;-81
2023/07/14 06:10:56;;;;;;;8.23;2.67;;;21.60;67.30;;;;;;5101042;28;20452;-79
2023/07/14 06:13:24;;;;;;;6.83;3.60;;;22.00;67.00;;;;;;5100215;28;20441;-81
2023/07/14 06:15:52;;;;;;;6.00;2.90;;;22.20;66.20;;;;;;5103046;28;20542;-79
2023/07/14 06:18:20;;;;;;;6.00;3.10;;;22.20;65.40;;;;;;5102223;28;20487;-80
2023/07/14 06:20:48;;;;;;;8.50;3.47;;;22.00;65.30;;;;;;5101937;28;20865;-79
2023/07/14 06:23:17;;;;;;;9.80;3.20;;;21.80;65.30;;;;;;5099044;28;20552;-79
2023/07/14 06:25:45;;;;;;;7.40;2.83;;;21.60;65.60;;;;;;5096036;28;20476;-79
2023/07/14 06:28:15;;;;;;;7.33;3.70;;;21.40;65.80;;;;;;5098467;28;20965;-79
2023/07/14 06:30:43;;;;;;;7.10;2.97;;;21.20;66.00;;;;;;5102951;28;20990;-79
2023/07/14 06:33:12;;;;;;;10.37;2.83;;;21.10;66.20;;;;;;5104288;28;20495;-80
2023/07/14 06:35:40;;;;;;;6.80;3.07;;;21.00;66.40;;;;;;5102932;28;20447;-80
2023/07/14 06:38:09;;;;;;;5.53;2.73;;;21.00;66.50;;;;;;5104001;28;20560;-78
2023/07/14 06:40:37;;;;;;;7.30;2.70;;;21.00;66.70;;;;;;5098711;28;20943;-80
2023/07/14 06:43:07;;;;;;;6.57;3.00;;;21.00;66.70;;;;;;5107774;28;20495;-79
2023/07/14 06:45:37;;;;;;;7.93;3.20;;;21.00;66.70;;;;;;5106155;28;20448;-79
2023/07/14 06:48:06;;;;;;;8.60;2.80;;;21.00;66.70;;;;;;5110143;28;20454;-79
2023/07/14 06:50:37;;;;;;;10.30;3.20;;;21.00;66.60;;;;;;5100316;28;20975;-78
2023/07/14 06:53:05;;;;;;;8.33;3.17;;;21.00;66.60;;;;;;5109625;28;20472;-80
2023/07/14 06:55:33;;;;;;;6.60;2.60;;;21.10;66.60;;;;;;5105884;28;20484;-80
2023/07/14 06:58:01;;;;;;;7.10;2.53;;;21.10;66.60;;;;;;5106385;28;20455;-81
2023/07/14 07:00:31;;;;;;;8.83;2.73;;;21.20;66.60;;;;;;5104936;28;20499;-78
2023/07/14 07:03:01;;;;;;;9.93;2.97;;;21.30;66.60;;;;;;5110310;28;20454;-78
2023/07/14 07:05:29;;;;;;;9.97;3.40;;;21.30;66.40;;;;;;5104780;28;20989;-79
2023/07/14 07:07:57;;;;;;;9.20;2.77;;;21.40;66.40;;;;;;5103571;28;20556;-80
2023/07/14 07:10:25;;;;;;;7.37;2.67;;;21.50;66.40;;;;;;5103237;28;20468;-80
2023/07/14 07:12:53;;;;;;;8.40;2.60;;;21.50;66.40;;;;;;5110182;28;20560;-80
2023/07/14 07:15:21;;;;;;;8.40;2.60;;;21.70;66.30;;;;;;5108454;28;20447;-78
2023/07/14 07:17:49;;;;;;;7.50;2.30;;;21.70;66.20;;;;;;5104292;28;20632;-79
2023/07/14 07:20:19;;;;;;;10.13;2.50;;;21.80;66.20;;;;;;5102021;28;20518;-80
2023/07/14 07:22:47;;;;;;;9.40;2.77;;;21.80;66.20;;;;;;5106269;28;20469;-80
2023/07/14 07:25:16;;;;;;;8.67;2.63;;;21.90;66.10;;;;;;5105817;28;20791;-81
2023/07/14 07:27:45;;;;;;;9.20;2.43;;;21.90;66.00;;;;;;5104028;28;20451;-78
2023/07/14 07:30:14;;;;;;;9.30;2.50;;;22.00;66.00;;;;;;5110388;27;20496;-82
2023/07/14 07:32:42;;;;;;;8.23;2.60;;;22.10;66.00;;;;;;5104683;28;20575;-79
2023/07/14 07:35:10;;;;;;;7.90;2.20;;;22.10;66.00;;;;;;5103764;28;20539;-79
2023/07/14 07:37:40;;;;;;;7.83;2.87;;;22.20;65.90;;;;;;5098749;28;20557;-79
2023/07/14 07:40:09;;;;;;;6.03;2.20;;;22.20;65.90;;;;;;5103600;28;20826;-81
2023/07/14 07:42:37;;;;;;;6.70;2.23;;;22.20;65.90;;;;;;5107572;28;20465;-79
2023/07/14 07:45:06;;;;;;;6.93;2.30;;;22.30;66.00;;;;;;5107219;28;20468;-80
2023/07/14 07:47:35;;;;;;;5.17;2.17;;;22.30;65.90;;;;;;5103197;28;20475;-81
2023/07/14 07:50:04;;;;;;;6.47;1.93;;;22.40;65.80;;;;;;5101252;28;20502;-79
2023/07/14 07:52:33;;;;;;;6.80;2.03;;;22.50;65.70;;;;;;5106307;28;20568;-80
2023/07/14 07:55:03;;;;;;;6.77;2.10;;;22.50;65.60;;;;;;5106538;27;20452;-78
2023/07/14 07:57:32;;;;;;;8.10;1.77;;;22.50;65.60;;;;;;5103577;28;20441;-81
2023/07/14 08:00:00;;;;;;;7.83;2.20;;;22.60;65.50;;;;;;5102701;28;20458;-78
2023/07/14 08:02:41;;;;;;;7.57;2.33;;;22.70;65.40;;;;;;5102059;28;20592;-79
2023/07/14 08:05:12;;;;;;;6.27;1.77;;;22.80;65.30;;;;;;5110830;28;20523;-79
2023/07/14 08:07:41;;;;;;;6.77;2.00;;;22.80;65.20;;;;;;5105078;27;20458;-81
2023/07/14 08:10:11;;;;;;;6.17;1.70;;;22.90;65.10;;;;;;5106453;28;20444;-79
2023/07/14 08:12:39;;;;;;;5.90;2.13;;;23.00;64.90;;;;;;5102880;28;20464;-81
2023/07/14 08:15:10;;;;;;;8.27;2.07;;;23.10;64.70;;;;;;5107908;28;20452;-81
2023/07/14 08:17:53;;;;;;;6.00;2.20;;;23.10;64.50;;;;;;5102186;28;20524;-78
2023/07/14 08:20:22;;;;;;;6.60;1.60;;;23.10;64.40;;;;;;5106943;28;20448;-81
2023/07/14 08:22:50;;;;;;;7.90;1.83;;;23.10;64.20;;;;;;5105032;28;20448;-79
2023/07/14 08:25:21;;;;;;;10.67;2.63;;;23.20;64.00;;;;;;5100112;28;20973;-80
2023/07/14 08:27:49;;;;;;;18.40;2.20;;;23.20;63.70;;;;;;5105879;28;20533;-79
2023/07/14 08:30:19;;;;;;;4.80;1.80;;;23.30;63.40;;;;;;5102225;28;20491;-79
2023/07/14 08:32:49;;;;;;;10.30;1.63;;;23.40;62.90;;;;;;5107712;28;20484;-81
2023/07/14 08:35:18;;;;;;;5.53;1.83;;;23.40;62.60;;;;;;5106377;28;21013;-82
2023/07/14 08:37:46;;;;;;;5.43;1.83;;;23.40;62.20;;;;;;5102627;27;20452;-78
2023/07/14 08:40:16;;;;;;;6.93;1.50;;;23.50;61.90;;;;;;5103989;28;20494;-80
2023/07/14 08:42:54;;;;;;;5.10;1.90;;;23.60;61.50;;;;;;5104728;28;20444;-82
2023/07/14 08:45:30;;;;;;;6.40;1.80;;;23.70;60.80;;;;;;5103674;28;20461;-80
2023/07/14 08:48:08;;;;;;;5.27;1.50;;;23.80;60.50;;;;;;5108173;28;20544;-81
2023/07/14 08:50:37;;;;;;;5.90;2.10;;;23.90;59.70;;;;;;5102078;28;20465;-81
2023/07/14 08:53:14;;;;;;;5.60;1.87;;;23.90;59.80;;;;;;5106040;28;20457;-81
2023/07/14 08:55:42;;;;;;;5.37;2.13;;;24.00;59.50;;;;;;5098230;28;20462;-78
2023/07/14 08:58:16;;;;;;;5.63;1.77;;;24.10;59.30;;;;;;5100953;27;20448;-80
2023/07/14 09:00:52;;;;;;;7.70;1.97;;;24.20;59.10;;;;;;5102489;28;20899;-79
2023/07/14 09:03:35;;;;;;;4.80;1.70;;;24.20;58.50;;;;;;5107810;28;20814;-80
2023/07/14 09:06:24;;;;;;;7.50;1.90;;;24.30;57.90;;;;;;5097873;28;20553;-79
2023/07/14 09:08:53;;;;;;;7.17;2.03;;;24.30;57.70;;;;;;5101615;28;20535;-81
2023/07/14 09:11:34;;;;;;;6.20;1.70;;;24.30;57.20;;;;;;5105330;28;20459;-80
2023/07/14 09:14:12;;;;;;;9.77;1.90;;;24.30;57.00;;;;;;5104454;28;20506;-81
2023/07/14 09:16:51;;;;;;;8.77;1.63;;;24.40;56.80;;;;;;5103731;28;21026;-79
2023/07/14 09:19:32;;;;;;;7.33;2.00;;;24.50;56.90;;;;;;5105885;28;20517;-80
2023/07/14 09:22:08;;;;;;;5.13;1.70;;;24.50;56.90;;;;;;5105692;28;20448;-81
2023/07/14 09:24:46;;;;;;;7.43;1.83;;;24.60;56.50;;;;;;5105828;28;21278;-81
2023/07/14 09:27:22;;;;;;;6.93;1.83;;;24.70;56.30;;;;;;5103252;28;20544;-81
2023/07/14 09:29:52;;;;;;;6.33;1.90;;;24.80;56.20;;;;;;5096908;28;20456;-79
2023/07/14 09:32:32;;;;;;;7.10;2.10;;;24.80;55.70;;;;;;5100793;28;20891;-80
2023/07/14 09:35:04;;;;;;;8.40;2.03;;;24.80;55.50;;;;;;5104061;28;20474;-82
2023/07/14 09:37:45;;;;;;;6.10;2.07;;;24.90;55.40;;;;;;5099998;28;20822;-81
2023/07/14 09:40:18;;;;;;;7.07;2.10;;;24.90;55.20;;;;;;5102213;28;20533;-82
2023/07/14 09:42:51;;;;;;;7.30;1.97;;;25.00;55.20;;;;;;5101103;28;20924;-80
2023/07/14 09:45:22;;;;;;;6.87;1.60;;;25.10;54.70;;;;;;5099385;28;20518;-80
2023/07/14 09:47:56;;;;;;;8.00;2.00;;;25.10;54.40;;;;;;5098977;28;20440;-80
2023/07/14 09:50:26;;;;;;;8.33;2.00;;;25.20;54.30;;;;;;5098462;28;20482;-81
2023/07/14 09:52:57;;;;;;;5.37;1.70;;;25.30;54.20;;;;;;5096497;28;20484;-79
2023/07/14 09:55:26;;;;;;;6.00;2.10;;;25.30;53.90;;;;;;5096801;28;20950;-81
2023/07/14 09:57:56;;;;;;;7.70;1.70;;;25.30;53.70;;;;;;5102016;28;20543;-79
2023/07/14 10:00:41;;;;;;;6.57;1.77;;;25.40;53.60;;;;;;5104341;28;20491;-82
2023/07/14 10:03:16;;;;;;;5.80;1.60;;;25.50;53.40;;;;;;5098508;28;21045;-78
2023/07/14 10:06:02;;;;;;;9.13;2.30;;;25.50;53.40;;;;;;5101215;28;20989;-78
2023/07/14 10:08:33;;;;;;;7.03;2.00;;;25.60;53.30;;;;;;5099863;28;20466;-78
2023/07/14 10:11:15;;;;;;;6.57;1.77;;;25.60;53.10;;;;;;5098851;28;20498;-78
2023/07/14 10:13:48;;;;;;;6.27;1.80;;;25.60;53.10;;;;;;5100731;28;20468;-78
2023/07/14 10:16:20;;;;;;;5.73;1.70;;;25.70;53.10;;;;;;5104507;28;20448;-79
2023/07/14 10:18:51;;;;;;;6.40;1.87;;;25.70;53.00;;;;;;5105669;28;20482;-79
2023/07/14 10:21:25;;;;;;;5.70;1.90;;;25.70;52.70;;;;;;5102398;28;20451;-78
2023/07/14 10:24:04;;;;;;;8.10;1.93;;;25.80;52.60;;;;;;5105297;28;20494;-79
2023/07/14 10:26:34;;;;;;;8.97;2.00;;;25.80;52.50;;;;;;5106237;28;20505;-79
2023/07/14 10:29:05;;;;;;;4.70;1.63;;;25.80;52.40;;;;;;5101512;28;20966;-79
2023/07/14 10:31:42;;;;;;;7.90;1.73;;;25.90;52.20;;;;;;5103728;28;20562;-79
2023/07/14 10:34:29;;;;;;;11.60;2.30;;;25.90;52.10;;;;;;5107659;28;20480;-79
2023/07/14 10:37:00;;;;;;;10.07;2.23;;;25.90;52.10;;;;;;5108103;27;20961;-77
2023/07/14 10:39:37;;;;;;;7.90;2.90;;;25.90;52.20;;;;;;5104365;28;20756;-79
2023/07/14 10:42:12;;;;;;;6.57;2.00;;;25.90;52.20;;;;;;5103112;28;20516;-79
2023/07/14 10:44:44;;;;;;;6.60;2.20;;;25.90;52.20;;;;;;5106160;28;20526;-79
2023/07/14 10:47:18;;;;;;;7.97;2.40;;;25.90;52.00;;;;;;5108394;28;20984;-78
2023/07/14 10:49:53;;;;;;;8.87;2.00;;;25.90;52.00;;;;;;5102922;28;20936;-79
2023/07/14 10:52:31;;;;;;;8.37;2.33;;;25.90;52.10;;;;;;5105448;28;20452;-78
2023/07/14 10:55:05;;;;;;;6.57;2.40;;;25.90;52.10;;;;;;5107797;28;20579;-78
2023/07/14 10:57:40;;;;;;;6.57;2.37;;;25.90;52.10;;;;;;5108019;28;20462;-78
2023/07/14 11:00:23;;;;;;;6.77;2.23;;;26.00;52.10;;;;;;5105915;28;21070;-78
2023/07/14 11:03:00;;;;;;;8.90;1.90;;;26.10;52.00;;;;;;5102796;28;20466;-78
2023/07/14 11:05:29;;;;;;;7.80;2.20;;;26.10;51.90;;;;;;5105233;27;20566;-78
2023/07/14 11:07:57;;;;;;;5.57;2.13;;;26.10;51.80;;;;;;5107123;28;20443;-78
2023/07/14 11:10:37;;;;;;;9.13;2.20;;;26.20;51.90;;;;;;5101856;27;20499;-79
2023/07/14 11:13:11;;;;;;;5.07;1.93;;;26.20;51.60;;;;;;5106507;28;20477;-78
2023/07/14 11:15:43;;;;;;;6.27;2.00;;;26.30;51.70;;;;;;5107845;28;20477;-78
2023/07/14 11:18:25;;;;;;;7.10;1.67;;;26.30;51.50;;;;;;5104720;28;20546;-78
2023/07/14 11:21:10;;;;;;;13.00;2.20;;;26.40;51.30;;;;;;5106426;28;20455;-78
2023/07/14 11:23:48;;;;;;;4.63;1.77;;;26.40;51.30;;;;;;5103954;28;20498;-77
2023/07/14 11:26:22;;;;;;;5.60;1.97;;;26.40;51.20;;;;;;5102603;28;20535;-79
2023/07/14 11:28:54;;;;;;;6.40;1.77;;;26.40;51.30;;;;;;5104516;28;21064;-79
2023/07/14 11:31:26;;;;;;;10.03;2.30;;;26.40;51.30;;;;;;5105857;28;20479;-79
2023/07/14 11:34:10;;;;;;;6.67;2.00;;;26.40;51.10;;;;;;5104956;28;20475;-79
2023/07/14 11:36:48;;;;;;;5.17;1.87;;;26.50;50.80;;;;;;5101193;28;20462;-79
2023/07/14 11:39:36;;;;;;;6.27;2.03;;;26.50;50.90;;;;;;5104384;28;21164;-79
2023/07/14 11:42:06;;;;;;;7.30;2.20;;;26.50;51.00;;;;;;5107646;28;20987;-78
2023/07/14 11:44:34;;;;;;;6.87;1.90;;;26.60;50.90;;;;;;5106978;28;20453;-78
2023/07/14 11:47:02;;;;;;;8.57;2.43;;;26.60;50.90;;;;;;5107264;28;20539;-80
2023/07/14 11:49:37;;;;;;;11.73;2.30;;;26.60;50.90;;;;;;5108249;28;20534;-79
2023/07/14 11:52:11;;;;;;;7.47;2.23;;;26.60;51.00;;;;;;5104441;28;20840;-79
2023/07/14 11:54:50;;;;;;;8.07;2.47;;;26.60;51.00;;;;;;5106850;28;20483;-78
2023/07/14 11:57:19;;;;;;;5.83;2.07;;;26.60;50.90;;;;;;5107201;28;20457;-80
2023/07/14 11:59:58;;;;;;;5.13;2.10;;;26.60;50.90;;;;;;5105957;28;20945;-78
2023/07/14 12:02:36;;;;;;;6.53;2.07;;;26.70;50.70;;;;;;5104567;28;20455;-79
2023/07/14 12:05:34;;;;;;;9.43;2.57;;;26.70;50.80;;;;;;5105093;28;20452;-78
2023/07/14 12:08:23;;;;;;;5.77;1.97;;;26.80;50.60;;;;;;5107338;28;21003;-78
2023/07/14 12:10:51;;;;;;;8.47;2.13;;;26.80;50.50;;;;;;5100956;28;20983;-79
2023/07/14 12:13:32;;;;;;;6.33;2.20;;;26.90;50.30;;;;;;5102279;28;20513;-80
2023/07/14 12:16:20;;;;;;;12.33;2.17;;;26.90;50.30;;;;;;5099209;28;21249;-80
2023/07/14 12:19:22;;;;;;;5.60;2.10;;;26.90;49.60;;;;;;5101665;28;20460;-78
2023/07/14 12:22:07;;;;;;;5.70;2.03;;;26.90;49.50;;;;;;5103672;28;20481;-78
2023/07/14 12:24:42;;;;;;;6.87;2.10;;;26.90;49.60;;;;;;5105581;28;20456;-79
2023/07/14 12:27:30;;;;;;;9.17;2.63;;;26.90;49.80;;;;;;5103166;28;20459;-80
2023/07/14 12:30:15;;;;;;;7.10;2.13;;;26.80;49.70;;;;;;5102916;28;21369;-80
2023/07/14 12:32:43;;;;;;;10.23;2.07;;;26.80;49.80;;;;;;5106954;28;20459;-79
2023/07/14 12:35:13;;;;;;;4.53;1.90;;;26.80;49.90;;;;;;5100501;28;20488;-79
2023/07/14 12:37:48;;;;;;;8.70;2.23;;;26.80;49.90;;;;;;5100076;28;20537;-78
2023/07/14 12:40:19;;;;;;;4.97;2.03;;;26.80;49.90;;;;;;5105994;28;20468;-80
2023/07/14 12:42:50;;;;;;;5.10;2.03;;;26.90;49.80;;;;;;5119378;27;20447;-78
2023/07/14 12:45:20;;;;;;;5.57;1.90;;;26.90;49.60;;;;;;5100811;28;20813;-79
2023/07/14 12:47:51;;;;;;;6.67;2.40;;;26.80;49.50;;;;;;5100080;28;20548;-81
2023/07/14 12:50:22;;;;;;;11.63;2.30;;;26.80;49.30;;;;;;5099208;28;20967;-81
2023/07/14 12:52:52;;;;;;;8.03;2.50;;;26.80;49.40;;;;;;5102770;27;20452;-80
2023/07/14 12:55:24;;;;;;;5.80;2.03;;;26.80;49.60;;;;;;5098989;28;20531;-80
2023/07/14 12:57:52;;;;;;;7.10;2.57;;;26.80;49.80;;;;;;5099933;28;20463;-78
2023/07/14 13:00:24;;;;;;;6.97;2.43;;;26.80;49.70;;;;;;5101064;28;20519;-78
2023/07/14 13:02:54;;;;;;;6.20;2.17;;;26.80;49.80;;;;;;5097395;28;20456;-79
2023/07/14 13:05:32;;;;;;;6.47;1.80;;;26.80;49.70;;;;;;5101834;28;20982;-79
2023/07/14 13:08:04;;;;;;;7.63;1.97;;;26.80;49.70;;;;;;5101569;28;20454;-79
2023/07/14 13:10:37;;;;;;;9.67;2.87;;;26.80;49.60;;;;;;5101436;28;20448;-79
2023/07/14 13:13:08;;;;;;;7.33;2.30;;;26.80;49.70;;;;;;5099516;28;20456;-78